Châteaudun, France

10:01 CET le 24 janvier 2017 (GMT +0100)
Chateaudun Air Base | | Change Station

Alt. 417 ft 48.05 °N, 1.38 °E | Updated 31 minutes ago

Overcast
Couvert
25 ° F
Paraît 25 ° F
N
2
Vent Variable Vent de Variable

Aujourd'hui
Haut(e) -- | Bas -- ° F
--% Risque de précip.
Hier
Haut(e) -- | Bas -- ° F
Precip. -- pouce
Pression 30.36 pouce
Visibilité -9999.0 Miles terrestres
Nuages Couvert 4400 ft
Point de rosée 23 ° F
Humidité 93%
Précipitations 0.00 pouce
Profondeur de la couche neigeuse Non disponible.
8:31 AM 5:42 PM
Lune descendante, 13% visible
METAR LFOC 240830Z AUTO VRB02KT 4900 BR OVC044 M04/M05 Q1028 NOSIG
Pression 30.36 pouce
Visibilité -9999.0 Miles terrestres
Nuages Couvert 4400 ft
Point de rosée 23 ° F
Humidité 93%
Précipitations 0.00 pouce
Profondeur de la couche neigeuse Non disponible.
8:31 AM 5:42 PM
Lune descendante, 13% visible
METAR LFOC 240830Z AUTO VRB02KT 4900 BR OVC044 M04/M05 Q1028 NOSIG

Get Your Daily Forecast Email!

Thanks for signing up!

Be on the lookout for a verification email in your inbox.

You'll start receiving the daily forecast at 8 AM.

×

10-Day Weather Forecast

×

Almanac

Astronomie

Jan. 24, 2017 Lever Coucher
Temps réel
Crépuscule civil
Crépuscule nautique
Crépuscule astronomique
Lune
Durée de lumière visible
Longueur du jour
Tomorrow will be .
, % of the Moon is Illuminated

Extrêmes aujourd'hui

Country Highs Country Lows

Community

WunderPhotos

Upload Photos

1,962,540 Photos téléchargées !

WunderBlog® & News

Nearby

Qualité de l'air

  Qualité de l'air Indice de la qualité de l'air Polluant
Not available.

Épaisseur de neige

Station Depth Altitude

Activité sismique

Ville Distance Mag. Time & Date
Minimum magnitude displayed is 2.5.

Températures des eaux côtières

Lieu Température

Stations

Stations météo à proximité

Emplacement de la station Température Refroidissement éolien Point de rosée Humidité Vent Precip. Alt. Mise à jour Type